Time;durP1;ratioP1;P1;durP2;ratioP2;P2;SDS_P1;SDS_P2;PMS_P1;PMS_P2;Temp;Humidity;BMP_temperature;BMP_pressure;BME280_temperature;BME280_humidity;BME280_pressure;Samples;Min_cycle;Max_cycle;Signal;HPM_P1;HPM_P2
2022/11/26 00:01:20;;;;;;;55.13;19.50;;;8.70;99.90;;;;;;5020999;28;20030;-73
2022/11/26 00:03:46;;;;;;;53.20;20.13;;;8.70;99.90;;;;;;5027854;28;20481;-74
2022/11/26 00:06:28;;;;;;;54.35;18.77;;;8.70;99.90;;;;;;5018824;28;20028;-75
2022/11/26 00:08:54;;;;;;;43.47;18.73;;;8.70;99.90;;;;;;5028684;28;20025;-77
2022/11/26 00:11:19;;;;;;;45.63;18.42;;;8.70;99.90;;;;;;5027377;28;20030;-76
2022/11/26 00:13:45;;;;;;;49.47;17.55;;;8.70;99.90;;;;;;5026483;28;20060;-74
2022/11/26 00:16:14;;;;;;;57.85;19.25;;;8.70;99.90;;;;;;5029717;28;20025;-70
2022/11/26 00:18:41;;;;;;;42.65;17.27;;;8.60;99.90;;;;;;5008030;28;20366;-73
2022/11/26 00:21:23;;;;;;;48.22;17.05;;;8.60;99.90;;;;;;5021209;28;20512;-75
2022/11/26 00:23:49;;;;;;;48.67;17.30;;;8.60;99.90;;;;;;5027696;28;20033;-74
2022/11/26 00:26:20;;;;;;;50.15;18.73;;;8.60;99.90;;;;;;5028605;28;20036;-74
2022/11/26 00:28:54;;;;;;;48.72;17.95;;;8.60;99.90;;;;;;5024896;28;20065;-75
2022/11/26 00:31:19;;;;;;;37.50;16.45;;;8.60;99.90;;;;;;5017116;28;20065;-74
2022/11/26 00:33:45;;;;;;;36.15;16.50;;;8.50;99.90;;;;;;5022637;28;20459;-76
2022/11/26 00:36:20;;;;;;;47.22;17.45;;;8.50;99.90;;;;;;5029387;28;20127;-74
2022/11/26 00:38:51;;;;;;;39.58;15.57;;;8.50;99.90;;;;;;5024352;28;20018;-74
2022/11/26 00:41:20;;;;;;;48.70;19.20;;;8.50;99.90;;;;;;5025889;28;20037;-73
2022/11/26 00:43:47;;;;;;;52.17;20.48;;;8.50;99.90;;;;;;5029550;28;20061;-75
2022/11/26 00:46:21;;;;;;;47.25;20.83;;;8.50;99.90;;;;;;5027531;28;20037;-74
2022/11/26 00:48:46;;;;;;;48.25;18.38;;;8.50;99.90;;;;;;5025444;28;21333;-73
2022/11/26 00:51:26;;;;;;;37.88;16.55;;;8.50;99.90;;;;;;5015150;28;20022;-74
2022/11/26 00:53:59;;;;;;;46.65;17.48;;;8.50;99.90;;;;;;5015827;28;20021;-74
2022/11/26 00:56:25;;;;;;;49.63;20.40;;;8.50;99.90;;;;;;5024694;28;20092;-75
2022/11/26 00:58:51;;;;;;;51.47;20.48;;;8.40;99.90;;;;;;5029262;28;20013;-76
2022/11/26 01:01:30;;;;;;;44.50;19.08;;;8.50;99.90;;;;;;5027273;28;20393;-74
2022/11/26 01:03:57;;;;;;;44.55;17.35;;;8.40;99.90;;;;;;5026811;28;20025;-72
2022/11/26 01:06:35;;;;;;;42.33;18.67;;;8.40;99.90;;;;;;5026101;28;20432;-75
2022/11/26 01:09:03;;;;;;;43.22;17.90;;;8.40;99.90;;;;;;5024573;28;20382;-74
2022/11/26 01:11:29;;;;;;;47.33;17.45;;;8.40;99.90;;;;;;5025244;28;20041;-72
2022/11/26 01:13:55;;;;;;;36.60;15.35;;;8.40;99.90;;;;;;5011978;28;20014;-75
2022/11/26 01:16:27;;;;;;;47.88;17.05;;;8.40;99.90;;;;;;5026948;28;20548;-75
2022/11/26 01:18:54;;;;;;;45.08;17.27;;;8.40;99.90;;;;;;5025230;28;20029;-75
2022/11/26 01:21:21;;;;;;;45.25;17.85;;;8.30;99.90;;;;;;5025928;28;20097;-75
2022/11/26 01:23:47;;;;;;;42.15;17.23;;;8.40;99.90;;;;;;5028723;28;20528;-75
2022/11/26 01:26:15;;;;;;;49.97;17.05;;;8.40;99.90;;;;;;5025704;28;20540;-74
2022/11/26 01:28:41;;;;;;;45.90;17.20;;;8.30;99.90;;;;;;5029827;28;20049;-74
2022/11/26 01:31:17;;;;;;;42.40;16.73;;;8.30;99.90;;;;;;5027401;28;20393;-75
2022/11/26 01:33:43;;;;;;;44.20;16.05;;;8.30;99.90;;;;;;5022253;28;20030;-72
2022/11/26 01:36:33;;;;;;;42.53;18.42;;;8.30;99.90;;;;;;5025332;28;20030;-76
2022/11/26 01:39:04;;;;;;;37.72;16.65;;;8.30;99.90;;;;;;5022330;28;20049;-74
2022/11/26 01:41:51;;;;;;;44.25;20.48;;;8.30;99.90;;;;;;5029276;28;20109;-74
2022/11/26 01:44:23;;;;;;;43.45;21.25;;;8.20;99.90;;;;;;5029677;28;20445;-75
2022/11/26 01:46:50;;;;;;;46.95;21.60;;;8.30;99.90;;;;;;5028569;28;20473;-73
2022/11/26 01:49:21;;;;;;;55.95;22.38;;;8.30;99.90;;;;;;5010750;28;20021;-75
2022/11/26 01:51:53;;;;;;;53.78;20.95;;;8.20;99.90;;;;;;5028573;28;20108;-75
2022/11/26 01:54:18;;;;;;;39.42;18.67;;;8.20;99.90;;;;;;5025371;28;20030;-75
2022/11/26 01:56:48;;;;;;;47.92;18.75;;;8.20;99.90;;;;;;5033694;28;20432;-76
2022/11/26 01:59:20;;;;;;;40.28;19.42;;;8.10;99.90;;;;;;5029560;28;20105;-73
2022/11/26 02:01:48;;;;;;;40.42;19.33;;;8.20;99.90;;;;;;5030211;28;20033;-74
2022/11/26 02:04:25;;;;;;;40.53;19.25;;;8.20;99.90;;;;;;5025731;28;20049;-75
2022/11/26 02:06:54;;;;;;;40.22;17.30;;;8.20;99.90;;;;;;5026152;28;20028;-76
2022/11/26 02:09:22;;;;;;;42.83;17.88;;;8.20;99.90;;;;;;5025843;28;20026;-76
2022/11/26 02:11:48;;;;;;;47.58;17.02;;;8.20;99.90;;;;;;5030695;28;20032;-75
2022/11/26 02:14:35;;;;;;;45.42;17.73;;;8.10;99.90;;;;;;5033359;28;20026;-74
2022/11/26 02:17:04;;;;;;;32.38;16.42;;;8.10;99.90;;;;;;5030138;28;20021;-75
2022/11/26 02:19:35;;;;;;;41.58;17.52;;;8.10;99.90;;;;;;5028557;28;20033;-75
2022/11/26 02:22:39;;;;;;;38.03;16.13;;;8.20;99.90;;;;;;5028045;28;20087;-75
2022/11/26 02:25:23;;;;;;;39.15;16.30;;;8.00;99.90;;;;;;4999993;28;20100;-74
2022/11/26 02:28:07;;;;;;;33.03;15.82;;;8.00;99.90;;;;;;5024388;28;20021;-75
2022/11/26 02:30:40;;;;;;;41.63;15.77;;;8.00;99.90;;;;;;5029914;28;20033;-75
2022/11/26 02:33:16;;;;;;;44.13;16.08;;;8.00;99.90;;;;;;5031182;28;20022;-72
2022/11/26 02:35:48;;;;;;;35.95;16.48;;;8.00;99.90;;;;;;5029884;28;20040;-73
2022/11/26 02:38:23;;;;;;;35.13;15.77;;;8.00;99.90;;;;;;5032904;28;20029;-75
2022/11/26 02:40:51;;;;;;;36.58;16.48;;;7.90;99.90;;;;;;5031265;28;20033;-73
2022/11/26 02:43:17;;;;;;;39.22;17.05;;;8.00;99.90;;;;;;5029452;28;20025;-75
2022/11/26 02:45:48;;;;;;;34.47;15.95;;;8.00;99.90;;;;;;5031272;28;20127;-75
2022/11/26 02:48:27;;;;;;;43.33;18.13;;;7.90;99.90;;;;;;5032224;28;20079;-75
2022/11/26 02:51:08;;;;;;;40.95;15.82;;;7.90;99.90;;;;;;5027609;28;20032;-73
2022/11/26 02:53:35;;;;;;;38.40;15.70;;;7.90;99.90;;;;;;5022514;28;20032;-75
2022/11/26 02:56:14;;;;;;;38.20;15.82;;;7.90;99.90;;;;;;5030134;28;20051;-75
2022/11/26 02:58:40;;;;;;;37.92;15.70;;;7.90;99.90;;;;;;5028181;28;20014;-75
2022/11/26 03:01:11;;;;;;;42.42;15.63;;;7.90;99.90;;;;;;5027300;28;20056;-75
2022/11/26 03:03:43;;;;;;;44.88;16.58;;;7.90;99.90;;;;;;5028870;28;20025;-74
2022/11/26 03:06:11;;;;;;;34.53;15.00;;;7.90;99.90;;;;;;5026706;28;20041;-74
2022/11/26 03:08:38;;;;;;;43.67;16.75;;;7.90;99.90;;;;;;5029979;28;20295;-75
2022/11/26 03:11:05;;;;;;;38.33;15.32;;;7.90;99.90;;;;;;5030039;28;20100;-75
2022/11/26 03:13:31;;;;;;;36.92;17.60;;;7.90;99.90;;;;;;5026566;28;20488;-74
2022/11/26 03:15:57;;;;;;;37.50;17.30;;;7.90;99.90;;;;;;5022853;28;20092;-75
2022/11/26 03:18:22;;;;;;;35.65;16.95;;;7.80;99.90;;;;;;5029691;28;20116;-74
2022/11/26 03:20:48;;;;;;;35.47;17.23;;;7.80;99.90;;;;;;5033526;28;20017;-73
2022/11/26 03:23:13;;;;;;;40.78;16.92;;;7.70;99.90;;;;;;5026778;28;20033;-75
2022/11/26 03:25:39;;;;;;;37.50;17.60;;;7.70;99.90;;;;;;5026824;28;20476;-74
2022/11/26 03:28:05;;;;;;;46.70;18.85;;;7.80;99.90;;;;;;5020286;28;20025;-75
2022/11/26 03:30:30;;;;;;;39.25;16.98;;;7.70;99.90;;;;;;5026250;28;20049;-75
2022/11/26 03:32:56;;;;;;;47.70;18.35;;;7.70;99.90;;;;;;5021145;28;20445;-73
2022/11/26 03:35:22;;;;;;;35.13;17.00;;;7.60;99.90;;;;;;5030538;28;20037;-74
2022/11/26 03:37:47;;;;;;;43.95;17.58;;;7.60;99.90;;;;;;5026771;28;20413;-74
2022/11/26 03:40:15;;;;;;;42.33;18.52;;;7.60;99.90;;;;;;5029064;28;20081;-75
2022/11/26 03:42:42;;;;;;;47.97;18.35;;;7.60;99.90;;;;;;5028996;28;20017;-72
2022/11/26 03:45:07;;;;;;;41.15;17.25;;;7.60;99.90;;;;;;5026192;28;20048;-73
2022/11/26 03:47:33;;;;;;;49.00;17.38;;;7.60;99.90;;;;;;5018873;28;20034;-74
2022/11/26 03:49:59;;;;;;;35.10;15.82;;;7.60;99.90;;;;;;5031816;28;20092;-74
2022/11/26 03:52:25;;;;;;;42.03;17.50;;;7.60;99.90;;;;;;5027820;28;20057;-74
2022/11/26 03:54:50;;;;;;;48.95;18.42;;;7.60;99.90;;;;;;5021563;28;20084;-74
2022/11/26 03:57:16;;;;;;;46.17;19.10;;;7.60;99.90;;;;;;5021314;28;20025;-74
2022/11/26 03:59:41;;;;;;;45.25;17.23;;;7.60;99.90;;;;;;5027179;28;20029;-75
2022/11/26 04:02:07;;;;;;;40.50;17.88;;;7.60;99.90;;;;;;5029630;28;20363;-74
2022/11/26 04:04:33;;;;;;;39.67;16.70;;;7.60;99.90;;;;;;5022083;28;20437;-74
2022/11/26 04:07:00;;;;;;;49.58;16.40;;;7.60;99.90;;;;;;5026074;28;20080;-75
2022/11/26 04:09:25;;;;;;;48.38;16.85;;;7.50;99.90;;;;;;5026337;28;20029;-75
2022/11/26 04:11:51;;;;;;;43.97;16.70;;;7.50;99.90;;;;;;5014529;28;20028;-75
2022/11/26 04:14:17;;;;;;;47.03;16.38;;;7.50;99.90;;;;;;5025093;28;20025;-75
2022/11/26 04:16:42;;;;;;;36.78;15.07;;;7.50;99.90;;;;;;5027780;28;20025;-75
2022/11/26 04:19:08;;;;;;;38.50;16.17;;;7.50;99.90;;;;;;5028920;28;20104;-75
2022/11/26 04:21:33;;;;;;;32.30;14.93;;;7.50;99.90;;;;;;5023734;28;20033;-75
2022/11/26 04:23:59;;;;;;;46.22;17.08;;;7.50;99.90;;;;;;5026837;28;20033;-75
2022/11/26 04:26:25;;;;;;;37.15;14.95;;;7.50;99.90;;;;;;5028929;28;20040;-74
2022/11/26 04:28:50;;;;;;;35.53;14.98;;;7.50;99.90;;;;;;5013107;28;20022;-75
2022/11/26 04:31:16;;;;;;;37.88;16.33;;;7.40;99.90;;;;;;5029162;28;20116;-74
2022/11/26 04:33:42;;;;;;;47.88;16.55;;;7.40;99.90;;;;;;5026255;28;20498;-72
2022/11/26 04:36:08;;;;;;;52.75;15.15;;;7.40;99.90;;;;;;5007921;28;20025;-75
2022/11/26 04:38:34;;;;;;;40.42;14.95;;;7.40;99.90;;;;;;5021821;28;20018;-74
2022/11/26 04:40:59;;;;;;;49.47;16.77;;;7.40;99.90;;;;;;5028776;28;20397;-75
2022/11/26 04:43:25;;;;;;;38.13;14.90;;;7.30;99.90;;;;;;5029652;28;20021;-73
2022/11/26 04:45:51;;;;;;;46.15;17.10;;;7.30;99.90;;;;;;5012606;28;20124;-75
2022/11/26 04:48:17;;;;;;;38.80;15.38;;;7.30;99.90;;;;;;5025026;28;20024;-73
2022/11/26 04:50:42;;;;;;;38.90;15.45;;;7.30;99.90;;;;;;5023600;28;20428;-69
2022/11/26 04:53:08;;;;;;;34.50;14.20;;;7.30;99.90;;;;;;5026593;28;20053;-75
2022/11/26 04:55:34;;;;;;;41.08;13.55;;;7.30;99.90;;;;;;5025054;28;20037;-72
2022/11/26 04:57:59;;;;;;;34.13;14.38;;;7.30;99.90;;;;;;5020848;28;20034;-75
2022/11/26 05:00:25;;;;;;;35.47;13.82;;;7.30;99.90;;;;;;5027651;28;20069;-75
2022/11/26 05:02:51;;;;;;;47.53;16.38;;;7.30;99.90;;;;;;5026497;28;20490;-75
2022/11/26 05:05:17;;;;;;;39.65;14.73;;;7.30;99.90;;;;;;5026175;28;20080;-75
2022/11/26 05:07:42;;;;;;;36.65;15.07;;;7.30;99.90;;;;;;5021594;28;20018;-75
2022/11/26 05:10:10;;;;;;;46.72;15.65;;;7.30;99.90;;;;;;5029457;28;20683;-74
2022/11/26 05:12:35;;;;;;;34.65;15.13;;;7.30;99.90;;;;;;5029249;28;20029;-68
2022/11/26 05:15:02;;;;;;;38.08;15.32;;;7.20;99.90;;;;;;5024308;28;20026;-74
2022/11/26 05:17:27;;;;;;;52.90;17.50;;;7.20;99.90;;;;;;5023781;28;20552;-72
2022/11/26 05:19:53;;;;;;;31.35;14.18;;;7.30;99.90;;;;;;5026750;28;20026;-75
2022/11/26 05:22:19;;;;;;;52.85;16.35;;;7.20;99.90;;;;;;5028395;28;20082;-73
2022/11/26 05:24:44;;;;;;;32.38;12.93;;;7.10;99.90;;;;;;5025907;28;20033;-74
2022/11/26 05:27:10;;;;;;;32.95;14.50;;;7.20;99.90;;;;;;5025413;28;20516;-72
2022/11/26 05:29:35;;;;;;;33.97;13.73;;;7.20;99.90;;;;;;5031579;28;20025;-73
2022/11/26 05:32:01;;;;;;;29.42;12.93;;;7.20;99.90;;;;;;5025654;28;20424;-74
2022/11/26 05:34:27;;;;;;;39.25;13.95;;;7.20;99.90;;;;;;5030729;28;20030;-74
2022/11/26 05:36:53;;;;;;;45.65;14.30;;;7.20;99.90;;;;;;5023747;28;20018;-75
2022/11/26 05:39:19;;;;;;;40.85;14.75;;;7.10;99.90;;;;;;5024551;28;20036;-73
2022/11/26 05:41:44;;;;;;;32.97;13.73;;;7.20;99.90;;;;;;5028374;28;20030;-75
2022/11/26 05:44:10;;;;;;;32.35;13.52;;;7.10;99.90;;;;;;5028028;28;20159;-73
2022/11/26 05:46:38;;;;;;;39.22;13.80;;;7.10;99.90;;;;;;5021992;28;20385;-74
2022/11/26 05:49:04;;;;;;;39.88;14.32;;;7.10;99.90;;;;;;5025489;28;20024;-74
2022/11/26 05:51:30;;;;;;;35.22;13.02;;;7.20;99.90;;;;;;5024463;28;20373;-75
2022/11/26 05:53:55;;;;;;;31.88;12.45;;;7.10;99.90;;;;;;5029345;28;20014;-75
2022/11/26 05:56:21;;;;;;;34.53;12.40;;;7.10;99.90;;;;;;5007876;28;20088;-74
2022/11/26 05:58:46;;;;;;;33.58;11.38;;;7.10;99.90;;;;;;5023776;28;20021;-75
2022/11/26 06:01:12;;;;;;;39.58;14.20;;;7.10;99.90;;;;;;5025573;28;20042;-70
2022/11/26 06:03:38;;;;;;;38.58;13.35;;;7.10;99.90;;;;;;5025664;28;20032;-75
2022/11/26 06:06:04;;;;;;;32.13;12.80;;;7.20;99.90;;;;;;5027554;28;20389;-74
2022/11/26 06:08:30;;;;;;;34.47;12.18;;;7.10;99.90;;;;;;5020617;28;20034;-75
2022/11/26 06:10:55;;;;;;;37.00;13.77;;;7.10;99.90;;;;;;5023227;28;20037;-74
2022/11/26 06:13:21;;;;;;;47.00;12.43;;;7.10;99.90;;;;;;5028327;28;20104;-75
2022/11/26 06:15:46;;;;;;;41.35;14.65;;;7.10;99.90;;;;;;5024854;28;20036;-74
2022/11/26 06:18:12;;;;;;;41.70;14.27;;;7.10;99.90;;;;;;5023069;28;20021;-75
2022/11/26 06:20:38;;;;;;;38.55;13.70;;;7.10;99.90;;;;;;5028370;28;20021;-75
2022/11/26 06:23:04;;;;;;;38.95;12.65;;;7.10;99.90;;;;;;5024164;28;20037;-74
2022/11/26 06:25:29;;;;;;;45.28;14.25;;;7.10;99.90;;;;;;5019722;28;20030;-75
2022/11/26 06:27:55;;;;;;;39.00;12.73;;;7.10;99.90;;;;;;5028406;28;20022;-75
2022/11/26 06:30:21;;;;;;;43.88;13.27;;;7.10;99.90;;;;;;5029215;28;20367;-75
2022/11/26 06:32:47;;;;;;;37.30;13.85;;;7.10;99.90;;;;;;5027198;28;20029;-75
2022/11/26 06:35:13;;;;;;;41.78;13.05;;;7.10;99.90;;;;;;5029386;28;20025;-76
2022/11/26 06:37:38;;;;;;;37.13;13.10;;;7.10;99.90;;;;;;5028944;28;20492;-74
2022/11/26 06:40:05;;;;;;;44.22;14.43;;;7.10;99.90;;;;;;5024062;28;20124;-74
2022/11/26 06:42:30;;;;;;;45.03;15.45;;;7.00;99.90;;;;;;5031369;28;20084;-75
2022/11/26 06:44:56;;;;;;;47.00;15.25;;;7.00;99.90;;;;;;5028765;28;20037;-75
2022/11/26 06:47:22;;;;;;;33.97;14.43;;;7.00;99.90;;;;;;5021472;28;20040;-74
2022/11/26 06:49:47;;;;;;;35.90;14.05;;;7.00;99.90;;;;;;5032398;28;20030;-75
2022/11/26 06:52:13;;;;;;;31.80;13.07;;;7.00;99.90;;;;;;5032146;28;20084;-75
2022/11/26 06:54:38;;;;;;;40.72;13.65;;;7.00;99.90;;;;;;5031581;28;20104;-75
2022/11/26 06:57:04;;;;;;;40.30;13.18;;;7.00;99.90;;;;;;5029865;28;20030;-76
2022/11/26 06:59:30;;;;;;;43.83;11.48;;;7.00;99.90;;;;;;5030227;28;20017;-73
2022/11/26 07:01:56;;;;;;;38.10;13.27;;;7.00;99.90;;;;;;5026133;28;20127;-75
2022/11/26 07:04:21;;;;;;;42.50;13.27;;;7.00;99.90;;;;;;5027529;28;20033;-75
2022/11/26 07:06:47;;;;;;;39.90;13.52;;;7.00;99.90;;;;;;5027679;28;20068;-75
2022/11/26 07:09:13;;;;;;;40.03;12.48;;;7.00;99.90;;;;;;5025876;28;20030;-75
2022/11/26 07:11:39;;;;;;;31.40;11.88;;;7.00;99.90;;;;;;5025682;28;20037;-75
2022/11/26 07:14:06;;;;;;;37.25;12.57;;;7.00;99.90;;;;;;5027504;28;20026;-75
2022/11/26 07:16:32;;;;;;;32.50;12.75;;;7.00;99.90;;;;;;5024893;28;20524;-75
2022/11/26 07:18:58;;;;;;;34.40;12.77;;;7.00;99.90;;;;;;5026377;28;20113;-74
2022/11/26 07:21:25;;;;;;;33.97;13.30;;;7.00;99.90;;;;;;5020687;28;20026;-72
2022/11/26 07:23:51;;;;;;;41.60;12.85;;;7.00;99.90;;;;;;5024530;28;20034;-75
2022/11/26 07:26:19;;;;;;;43.05;12.82;;;7.10;99.90;;;;;;5026613;28;20042;-74
2022/11/26 07:28:46;;;;;;;32.67;11.98;;;7.00;99.90;;;;;;5021701;28;20111;-74
2022/11/26 07:31:14;;;;;;;34.20;11.93;;;6.90;99.90;;;;;;5024165;28;20470;-74
2022/11/26 07:33:40;;;;;;;36.97;11.68;;;7.00;99.90;;;;;;5024989;28;20044;-73
2022/11/26 07:36:10;;;;;;;31.55;10.57;;;7.00;99.90;;;;;;5023654;28;20018;-75
2022/11/26 07:38:35;;;;;;;35.10;10.93;;;7.00;99.90;;;;;;5029089;28;20094;-72
2022/11/26 07:41:07;;;;;;;37.40;10.95;;;7.00;99.90;;;;;;5011827;28;20056;-72
2022/11/26 07:43:37;;;;;;;29.83;10.05;;;7.00;99.90;;;;;;5023700;28;20026;-74
2022/11/26 07:46:05;;;;;;;35.67;12.13;;;7.00;99.90;;;;;;5027782;28;20044;-74
2022/11/26 07:48:32;;;;;;;37.80;11.25;;;7.00;99.90;;;;;;5029669;28;20025;-75
2022/11/26 07:50:59;;;;;;;36.08;10.70;;;7.00;99.90;;;;;;5030328;28;20113;-74
2022/11/26 07:53:29;;;;;;;28.80;9.85;;;7.00;99.90;;;;;;5029158;28;20036;-72
2022/11/26 07:55:55;;;;;;;36.90;10.38;;;7.00;99.90;;;;;;5025563;28;20037;-74
2022/11/26 07:58:21;;;;;;;33.75;11.32;;;7.00;99.90;;;;;;5030522;28;20029;-72
2022/11/26 08:00:46;;;;;;;36.50;11.35;;;7.00;99.90;;;;;;5025084;28;20029;-71
2022/11/26 08:03:12;;;;;;;35.15;10.25;;;7.00;99.90;;;;;;5028403;28;20057;-75
2022/11/26 08:05:41;;;;;;;43.90;11.85;;;7.00;99.90;;;;;;5025288;28;20474;-73
2022/11/26 08:08:08;;;;;;;33.40;10.10;;;7.00;99.90;;;;;;5019251;28;20076;-75
2022/11/26 08:10:33;;;;;;;28.63;11.77;;;7.00;99.90;;;;;;5021687;28;20037;-75
2022/11/26 08:12:59;;;;;;;32.97;9.80;;;7.10;99.90;;;;;;5031518;28;20017;-75
2022/11/26 08:15:24;;;;;;;38.50;12.32;;;7.10;99.90;;;;;;5024206;28;20097;-73
2022/11/26 08:17:54;;;;;;;37.22;10.93;;;7.10;99.90;;;;;;5019259;28;20026;-71
2022/11/26 08:20:20;;;;;;;45.92;11.00;;;7.20;99.90;;;;;;5025532;28;20037;-71
2022/11/26 08:22:45;;;;;;;35.35;11.13;;;7.30;99.90;;;;;;5031893;28;20373;-74
2022/11/26 08:25:11;;;;;;;32.53;10.20;;;7.40;99.90;;;;;;5011358;28;20049;-72
2022/11/26 08:27:37;;;;;;;34.65;11.00;;;7.40;99.90;;;;;;5025091;28;20120;-75
2022/11/26 08:30:03;;;;;;;43.28;11.40;;;7.50;99.90;;;;;;5022096;28;20331;-75
2022/11/26 08:32:29;;;;;;;30.10;10.73;;;7.50;99.90;;;;;;5025116;28;20425;-74
2022/11/26 08:34:55;;;;;;;41.47;11.63;;;7.60;99.90;;;;;;5024276;28;20014;-75
2022/11/26 08:37:20;;;;;;;35.63;9.40;;;7.60;99.90;;;;;;5023660;28;20040;-75
2022/11/26 08:39:46;;;;;;;32.60;9.88;;;7.50;99.90;;;;;;5024832;28;20029;-73
2022/11/26 08:42:11;;;;;;;34.28;9.48;;;7.60;99.90;;;;;;5021715;28;20504;-75
2022/11/26 08:44:37;;;;;;;34.33;9.95;;;7.50;99.90;;;;;;5022188;28;20145;-75
2022/11/26 08:47:03;;;;;;;26.98;9.30;;;7.60;99.90;;;;;;5024677;28;20057;-72
2022/11/26 08:49:29;;;;;;;41.17;9.73;;;7.60;99.90;;;;;;5022751;28;20030;-72
2022/11/26 08:51:55;;;;;;;25.83;9.43;;;7.70;99.90;;;;;;5021559;28;20018;-75
2022/11/26 08:54:21;;;;;;;29.80;9.65;;;7.70;99.90;;;;;;5024633;28;20029;-76
2022/11/26 08:56:47;;;;;;;23.40;8.80;;;7.80;99.90;;;;;;5025557;28;20021;-75
2022/11/26 08:59:13;;;;;;;30.15;8.45;;;7.90;99.90;;;;;;5027210;28;20038;-75
2022/11/26 09:01:39;;;;;;;38.63;10.45;;;8.00;99.90;;;;;;5023988;28;20040;-75
2022/11/26 09:04:05;;;;;;;26.65;8.73;;;7.90;99.90;;;;;;5023906;28;20025;-75
2022/11/26 09:06:32;;;;;;;34.38;8.68;;;8.00;99.90;;;;;;5024761;28;20034;-75
2022/11/26 09:09:11;;;;;;;34.88;9.90;;;7.90;99.90;;;;;;5026027;28;20471;-75
2022/11/26 09:12:01;;;;;;;30.10;8.73;;;8.00;99.90;;;;;;5019385;28;20083;-72
2022/11/26 09:14:30;;;;;;;34.13;10.55;;;8.10;99.90;;;;;;5025610;28;20022;-75
2022/11/26 09:16:56;;;;;;;33.92;9.50;;;8.10;99.90;;;;;;5026452;28;20029;-74
2022/11/26 09:19:23;;;;;;;30.80;9.32;;;8.20;99.90;;;;;;5024887;28;20022;-71
2022/11/26 09:21:49;;;;;;;25.45;9.07;;;8.20;99.90;;;;;;5027475;28;20496;-73
2022/11/26 09:24:16;;;;;;;31.52;9.20;;;8.20;99.90;;;;;;5017371;28;20026;-73
2022/11/26 09:26:42;;;;;;;42.25;10.57;;;8.30;99.90;;;;;;5024537;28;20409;-71
2022/11/26 09:29:12;;;;;;;29.83;9.48;;;8.30;99.90;;;;;;5028292;28;20104;-70
2022/11/26 09:31:38;;;;;;;34.55;9.50;;;8.30;99.90;;;;;;5009533;28;20034;-73
2022/11/26 09:34:04;;;;;;;34.92;9.95;;;8.40;99.90;;;;;;5025141;28;20040;-68
2022/11/26 09:36:29;;;;;;;31.83;8.32;;;8.50;99.90;;;;;;5026704;28;20132;-70
2022/11/26 09:38:57;;;;;;;34.90;8.73;;;8.60;99.90;;;;;;5023683;28;20029;-77
2022/11/26 09:42:10;;;;;;;27.17;7.50;;;8.70;99.90;;;;;;5026408;28;20026;-72
2022/11/26 09:45:10;;;;;;;39.13;8.60;;;8.70;99.90;;;;;;5008102;28;20049;-76
2022/11/26 09:47:41;;;;;;;40.33;9.20;;;8.70;99.90;;;;;;5020744;28;20025;-73
2022/11/26 09:50:10;;;;;;;31.25;8.80;;;8.70;99.90;;;;;;5018750;28;20395;-73
2022/11/26 09:53:00;;;;;;;30.58;8.52;;;8.70;99.90;;;;;;5027242;28;20036;-75
2022/11/26 09:55:32;;;;;;;26.92;9.95;;;8.70;99.90;;;;;;5020895;28;20029;-70
2022/11/26 09:58:01;;;;;;;33.53;8.10;;;8.80;99.90;;;;;;5026115;28;20569;-76
2022/11/26 10:00:30;;;;;;;30.20;9.00;;;8.90;99.90;;;;;;5026249;28;20117;-74
2022/11/26 10:02:56;;;;;;;42.47;11.13;;;8.80;99.90;;;;;;5023636;28;20049;-75
2022/11/26 10:05:38;;;;;;;37.53;10.55;;;8.90;99.90;;;;;;5032050;28;20366;-76
2022/11/26 10:08:23;;;;;;;40.08;10.32;;;8.90;99.90;;;;;;5027994;28;20072;-73
2022/11/26 10:11:05;;;;;;;33.90;9.90;;;9.00;99.90;;;;;;5026968;28;20030;-76
2022/11/26 10:13:58;;;;;;;31.27;9.65;;;9.00;99.90;;;;;;5031622;28;20022;-75
2022/11/26 10:16:29;;;;;;;32.70;9.23;;;9.10;99.90;;;;;;5033022;28;20030;-75
2022/11/26 10:19:05;;;;;;;36.67;8.63;;;9.10;99.90;;;;;;5027313;28;20032;-75
2022/11/26 10:21:41;;;;;;;37.42;8.75;;;9.20;99.90;;;;;;5031228;28;20477;-74
2022/11/26 10:24:16;;;;;;;35.03;8.80;;;9.20;99.90;;;;;;5019951;28;20018;-75
2022/11/26 10:26:43;;;;;;;38.78;8.93;;;9.10;99.90;;;;;;5032210;28;20042;-72
2022/11/26 10:29:14;;;;;;;41.50;8.15;;;9.20;99.90;;;;;;5012573;28;20018;-76
2022/11/26 10:31:43;;;;;;;30.00;8.60;;;9.30;99.90;;;;;;5033446;28;20041;-75
2022/11/26 10:34:17;;;;;;;28.80;8.18;;;9.30;99.90;;;;;;5010108;28;20484;-74
2022/11/26 10:36:44;;;;;;;31.05;8.00;;;9.40;99.90;;;;;;5021845;28;20113;-76
2022/11/26 10:39:16;;;;;;;35.22;7.97;;;9.40;99.90;;;;;;5023193;28;20100;-75
2022/11/26 10:41:42;;;;;;;23.55;7.53;;;9.50;99.90;;;;;;5028068;28;20021;-75
2022/11/26 10:44:34;;;;;;;28.80;7.22;;;9.60;99.90;;;;;;5026116;28;20026;-75
2022/11/26 10:47:23;;;;;;;32.72;8.02;;;9.60;99.90;;;;;;5023934;28;20068;-76
2022/11/26 10:49:51;;;;;;;31.90;7.38;;;9.60;99.90;;;;;;5028554;28;20393;-76
2022/11/26 10:52:31;;;;;;;30.85;7.28;;;9.60;99.90;;;;;;5029627;28;20159;-75
2022/11/26 10:55:22;;;;;;;36.50;7.82;;;9.60;99.90;;;;;;5029799;28;20041;-70
2022/11/26 10:57:55;;;;;;;33.03;7.47;;;9.60;99.90;;;;;;5027865;28;20052;-74
2022/11/26 11:00:53;;;;;;;29.63;8.13;;;9.70;99.90;;;;;;5030027;28;20044;-71
2022/11/26 11:03:28;;;;;;;29.42;8.45;;;9.70;99.90;;;;;;5027961;28;20037;-74
2022/11/26 11:06:19;;;;;;;27.65;7.40;;;9.80;99.90;;;;;;5019345;28;20041;-75
2022/11/26 11:08:50;;;;;;;30.70;6.68;;;9.80;99.90;;;;;;5019665;28;20042;-71
2022/11/26 11:11:19;;;;;;;34.95;6.47;;;9.80;99.90;;;;;;5032697;28;20030;-70
2022/11/26 11:13:48;;;;;;;25.35;6.72;;;9.80;99.90;;;;;;5028945;28;20026;-72
2022/11/26 11:16:21;;;;;;;26.08;6.55;;;9.80;99.90;;;;;;5024678;28;20025;-75
2022/11/26 11:18:58;;;;;;;29.13;6.35;;;9.80;99.90;;;;;;5031794;28;20029;-74
2022/11/26 11:21:33;;;;;;;26.75;6.75;;;9.80;99.90;;;;;;5031963;28;20350;-73
2022/11/26 11:24:21;;;;;;;34.78;7.57;;;9.80;99.90;;;;;;5027901;28;20438;-72
2022/11/26 11:26:52;;;;;;;29.77;6.93;;;9.90;99.90;;;;;;5026970;28;20413;-76
2022/11/26 11:29:37;;;;;;;31.05;7.05;;;10.00;99.90;;;;;;5031007;28;20074;-75
2022/11/26 11:32:37;;;;;;;33.10;7.63;;;10.10;99.90;;;;;;5029275;28;20041;-74
2022/11/26 11:35:32;;;;;;;34.55;7.97;;;10.00;99.90;;;;;;5028535;28;20026;-72
2022/11/26 11:37:58;;;;;;;29.30;9.13;;;10.00;99.90;;;;;;5002167;28;20033;-76
2022/11/26 11:40:27;;;;;;;25.08;7.75;;;10.10;99.90;;;;;;5025288;28;20033;-71
2022/11/26 11:43:02;;;;;;;24.20;7.07;;;10.20;99.90;;;;;;5027847;28;20030;-76
2022/11/26 11:45:41;;;;;;;33.58;7.60;;;10.20;99.90;;;;;;5027763;28;20041;-75
2022/11/26 11:48:18;;;;;;;29.45;6.60;;;10.30;99.90;;;;;;5025825;28;20108;-74
2022/11/26 11:50:52;;;;;;;28.77;6.40;;;10.30;99.90;;;;;;5026021;28;20060;-69
2022/11/26 11:53:37;;;;;;;25.48;5.70;;;10.40;99.90;;;;;;5024232;28;20026;-69
2022/11/26 11:56:27;;;;;;;21.02;5.75;;;10.40;99.90;;;;;;5023720;28;20109;-75
2022/11/26 11:59:03;;;;;;;31.55;6.95;;;10.50;99.90;;;;;;5026861;28;20026;-75
2022/11/26 12:01:44;;;;;;;15.73;5.68;;;10.60;99.90;;;;;;5024927;28;20065;-70
2022/11/26 12:04:20;;;;;;;23.83;5.88;;;10.50;99.90;;;;;;5023712;28;20033;-69
2022/11/26 12:07:04;;;;;;;30.67;5.57;;;10.60;99.90;;;;;;5008022;28;20057;-75
2022/11/26 12:09:44;;;;;;;29.10;6.10;;;10.60;99.90;;;;;;5024517;28;20030;-70
2022/11/26 12:12:32;;;;;;;27.83;6.03;;;10.60;99.90;;;;;;5026406;28;20025;-71
2022/11/26 12:15:06;;;;;;;26.48;4.68;;;10.70;99.90;;;;;;5016486;28;20386;-69
2022/11/26 12:17:41;;;;;;;23.25;5.60;;;10.70;99.90;;;;;;5020173;28;20072;-76
2022/11/26 12:20:32;;;;;;;30.30;5.20;;;10.80;99.90;;;;;;5020884;28;20030;-73
2022/11/26 12:23:17;;;;;;;26.27;5.25;;;10.90;99.90;;;;;;5023254;28;20414;-70
2022/11/26 12:25:48;;;;;;;29.23;6.18;;;10.90;99.90;;;;;;5028821;28;20033;-68
2022/11/26 12:28:23;;;;;;;29.10;5.85;;;11.00;99.90;;;;;;5026318;28;20021;-69
2022/11/26 12:31:01;;;;;;;25.63;5.55;;;10.90;99.90;;;;;;5023229;28;20071;-68
2022/11/26 12:33:41;;;;;;;22.85;5.07;;;11.00;99.90;;;;;;5024775;28;20033;-68
2022/11/26 12:36:35;;;;;;;25.58;5.18;;;11.10;99.90;;;;;;5024637;28;20421;-71
2022/11/26 12:39:17;;;;;;;23.95;5.45;;;11.10;99.90;;;;;;5011192;28;20397;-71
2022/11/26 12:41:55;;;;;;;;;;;11.20;99.90;;;;;;5027513;28;20021;-67
2022/11/26 12:44:38;;;;;;;24.83;5.65;;;11.20;99.90;;;;;;5025562;28;20004;-70
2022/11/26 12:47:25;;;;;;;26.98;5.20;;;11.20;99.90;;;;;;5028347;28;20485;-68
2022/11/26 12:50:19;;;;;;;22.15;5.43;;;11.30;99.90;;;;;;5028281;28;20025;-69
2022/11/26 12:53:13;;;;;;;27.60;5.18;;;11.40;99.90;;;;;;5020621;28;20536;-69
2022/11/26 12:55:57;;;;;;;26.77;5.45;;;11.20;99.90;;;;;;5025650;28;20045;-69